Latest Weather Observations for Pirlangimpi

IDD60801

Issued at 11:35 am CST Tuesday 21 October 2014 (issued every 30 minutes, with the page automatically refreshed every 10 minutes)

About weather observations | Map of weather stations | Latest weather observations for NT | Other Formats
Station Details ID: 014142 Name: PIRLANGIMPI AIRPORT Lat: -11.40 Lon: 130.42 Height: 18.3 m
Data from the previous 72 hours. | See also: Recent months at Pirlangimpi
Date/Time
CST
Temp
°C
App
Temp
°C
Dew
Point
Rel
Hum
%
Delta-T
°C
Wind Press
QNH
hPa
Press
MSL
hPa
Rain
since 9 am
mm
Dir
 
Spd
km/h
Gust
km/h
Spd
kts
Gust
kts
21/11:30am 34.9 36.0 19.7 41 10.1 E 13 24 7 13 1015.1 1015.0 0.0
21/11:00am 33.5 33.1 18.0 39 10.0 E 17 30 9 16 1015.3 1015.2 0.0
21/10:30am 33.5 33.8 18.8 41 9.6 E 15 22 8 12 1015.2 1015.1 0.0
21/10:00am 33.3 34.6 19.4 44 9.2 ENE 11 22 6 12 1015.3 1015.2 0.0
21/09:30am 31.7 34.1 20.9 52 7.2 ENE 9 17 5 9 1015.5 1015.4 0.0
21/09:00am 30.2 32.9 21.3 59 6.0 ENE 9 17 5 9 1015.5 1015.4 0.0
21/08:30am 28.9 32.0 21.4 64 5.0 E 7 15 4 8 1015.5 1015.4 0.0
21/08:00am 27.1 30.9 21.6 72 3.7 E 4 6 2 3 1015.3 1015.2 0.0
21/07:30am 24.7 29.6 22.4 87 1.5 CALM 0 0 0 0 1015.0 1014.9 0.0
21/07:00am 22.9 27.5 21.7 93 0.8 CALM 0 0 0 0 1014.8 1014.7 0.0
21/06:30am 22.3 26.4 20.8 91 1.0 E 0 0 0 0 1014.5 1014.4 0.0
21/06:00am 22.4 26.6 21.0 92 0.9 CALM 0 0 0 0 1014.1 1014.0 0.0
21/05:30am 22.6 26.8 20.9 90 1.1 CALM 0 0 0 0 1014.1 1014.0 0.0
21/05:00am 22.7 27.0 21.2 91 1.0 CALM 0 0 0 0 1014.0 1013.9 0.0
21/04:30am 22.9 27.1 21.0 89 1.2 CALM 0 2 0 1 1013.7 1013.6 0.0
21/04:00am 23.2 27.0 21.6 91 1.1 ESE 4 6 2 3 1013.8 1013.7 0.0
21/03:30am 22.8 26.4 21.3 91 1.0 E 4 7 2 4 1013.7 1013.6 0.0
21/03:00am 22.9 27.0 20.8 88 1.4 CALM 0 0 0 0 1013.6 1013.5 0.0
21/02:30am 23.0 27.1 20.7 87 1.5 CALM 0 0 0 0 1013.6 1013.5 0.0
21/02:00am 23.1 27.2 20.8 87 1.5 CALM 0 0 0 0 1013.8 1013.7 0.0
21/01:30am 23.3 27.5 21.0 87 1.5 CALM 0 0 0 0 1013.8 1013.7 0.0
21/01:00am 23.4 27.8 21.3 88 1.4 CALM 0 0 0 0 1014.1 1014.0 0.0
21/12:30am 23.6 27.8 20.9 85 1.8 CALM 0 0 0 0 1014.4 1014.3 0.0
21/12:00am 24.1 28.1 20.6 81 2.3 NNW 0 0 0 0 1014.6 1014.5 0.0
 
Date/Time
CST
Temp
°C
App
Temp
°C
Dew
Point
Rel
Hum
%
Delta-T
°C
Wind Press
QNH
hPa
Press
MSL
hPa
Rain
since 9 am
mm
Dir
 
Spd
km/h
Gust
km/h
Spd
kts
Gust
kts
20/11:30pm 24.9 28.8 21.2 80 2.4 N 2 4 1 2 1014.5 1014.4 0.0
20/11:00pm 25.3 28.6 21.4 79 2.6 NNE 6 13 3 7 1014.5 1014.4 0.0
20/10:30pm 25.1 28.7 21.2 79 2.6 NNE 4 7 2 4 1014.3 1014.2 0.0
20/10:00pm 25.1 29.2 20.8 77 2.8 CALM 0 2 0 1 1014.1 1014.0 0.0
20/09:30pm 25.1 28.8 20.8 77 2.8 ENE 2 4 1 2 1013.8 1013.7 0.0
20/09:00pm 25.5 29.6 20.7 75 3.1 CALM 0 2 0 1 1013.5 1013.4 0.0
20/08:30pm 25.9 29.6 20.7 73 3.4 NNE 2 4 1 2 1012.9 1012.8 0.0
20/08:00pm 26.4 30.5 20.7 71 3.7 CALM 0 0 0 0 1012.4 1012.3 0.0
20/07:30pm 26.9 30.5 20.5 68 4.2 N 2 4 1 2 1012.2 1012.1 0.0
20/07:00pm 27.8 31.0 20.6 65 4.7 N 4 7 2 4 1011.8 1011.7 0.0
20/06:30pm 28.6 31.5 20.6 62 5.3 N 6 17 3 9 1011.2 1011.1 0.0
20/06:00pm 29.4 31.6 20.3 58 6.0 NNE 9 22 5 12 1010.7 1010.6 0.0
20/05:30pm 31.4 32.8 20.4 52 7.3 NE 13 22 7 12 1010.2 1010.1 0.0
20/05:00pm 32.0 33.8 21.2 52 7.3 NE 13 20 7 11 1010.0 1009.9 0.0
20/04:30pm 32.1 34.2 21.0 52 7.5 NNE 11 24 6 13 1010.0 1009.9 0.0
20/04:00pm 33.1 35.4 21.3 50 8.0 NNE 11 26 6 14 1010.0 1009.9 0.0
20/03:30pm 34.3 36.0 21.0 45 9.0 NE 13 28 7 15 1010.1 1010.0 0.0
20/03:00pm 34.9 36.2 20.1 42 9.9 NE 13 26 7 14 1010.3 1010.2 0.0
20/02:30pm 35.5 37.0 20.6 41 10.0 NE 13 24 7 13 1010.5 1010.4 0.0
20/02:00pm 34.3 34.9 19.5 41 9.8 NE 15 26 8 14 1010.8 1010.7 0.0
20/01:30pm 34.4 35.5 20.4 44 9.4 NE 15 32 8 17 1011.5 1011.4 0.0
20/01:00pm 35.3 36.7 20.4 41 10.0 NE 13 24 7 13 1012.1 1012.0 0.0
20/12:30pm 35.0 35.4 17.2 34 11.4 ENE 11 32 6 17 1012.7 1012.6 0.0
20/12:00pm 35.2 35.7 18.3 36 11.0 ENE 13 22 7 12 1013.4 1013.3 0.0
20/11:30am 34.1 34.7 17.8 38 10.5 E 11 24 6 13 1013.9 1013.8 0.0
20/11:00am 33.6 35.2 20.0 44 9.0 E 11 24 6 13 1014.3 1014.2 0.0
20/10:30am 33.6 36.1 21.1 48 8.4 ENE 9 19 5 10 1014.6 1014.5 0.0
20/10:00am 32.6 34.2 20.8 49 7.9 ENE 13 24 7 13 1014.9 1014.8 0.0
20/09:30am 31.4 32.6 20.7 53 7.1 ENE 15 22 8 12 1014.9 1014.8 0.0
20/09:00am 29.8 32.2 22.3 64 5.1 ENE 13 19 7 10 1014.9 1014.8 0.0
20/08:30am 29.2 33.1 22.9 69 4.3 E 7 13 4 7 1015.0 1014.9 0.0
20/08:00am 27.0 31.9 23.0 79 2.7 E 2 6 1 3 1014.7 1014.6 0.0
20/07:30am 25.5 30.2 22.6 84 2.0 SSE 2 6 1 3 1014.4 1014.3 0.0
20/07:00am 25.2 29.9 22.7 86 1.7 S 2 4 1 2 1014.0 1013.9 0.0
20/06:30am 24.8 29.4 22.5 87 1.5 SE 2 4 1 2 1013.6 1013.5 0.0
20/06:00am 25.0 29.3 22.7 87 1.5 SE 4 6 2 3 1013.5 1013.4 0.0
20/05:30am 24.5 29.4 22.4 88 1.4 CALM 0 0 0 0 1013.2 1013.1 0.0
20/05:00am 24.4 28.5 22.3 88 1.4 SE 4 4 2 2 1013.2 1013.1 0.0
20/04:30am 24.3 29.0 22.0 87 1.5 CALM 0 0 0 0 1012.8 1012.7 0.0
20/04:00am 24.4 29.1 21.9 86 1.7 CALM 0 0 0 0 1012.5 1012.4 0.0
20/03:30am 25.1 29.9 22.2 84 1.9 CALM 0 0 0 0 1012.6 1012.5 0.0
20/03:00am 25.3 30.4 22.6 85 1.8 CALM 0 0 0 0 1012.6 1012.5 0.0
20/02:30am 25.2 29.4 22.5 85 1.8 SE 4 7 2 4 1012.7 1012.6 0.0
20/02:00am 24.4 29.2 22.1 87 1.5 CALM 0 6 0 3 1012.9 1012.8 0.0
20/01:30am 24.3 29.0 22.0 87 1.5 CALM 0 0 0 0 1013.1 1013.0 0.0
20/01:00am 24.2 28.8 21.7 86 1.7 CALM 0 0 0 0 1013.5 1013.4 0.0
20/12:30am 24.4 29.0 21.7 85 1.8 CALM 0 0 0 0 1013.7 1013.6 0.0
20/12:00am 24.6 29.2 21.7 84 1.9 CALM 0 0 0 0 1013.8 1013.7 0.0
 
Date/Time
CST
Temp
°C
App
Temp
°C
Dew
Point
Rel
Hum
%
Delta-T
°C
Wind Press
QNH
hPa
Press
MSL
hPa
Rain
since 9 am
mm
Dir
 
Spd
km/h
Gust
km/h
Spd
kts
Gust
kts
19/11:30pm 24.9 29.6 22.0 84 1.9 CALM 0 0 0 0 1013.9 1013.8 0.0
19/11:00pm 25.2 29.9 21.9 82 2.2 CALM 0 0 0 0 1013.9 1013.8 0.0
19/10:30pm 25.7 30.5 22.2 81 2.3 CALM 0 0 0 0 1013.8 1013.7 0.0
19/10:00pm 26.1 30.8 22.0 78 2.7 CALM 0 2 0 1 1013.3 1013.2 0.0
19/09:30pm 26.6 31.1 22.2 77 3.0 NNE 2 6 1 3 1012.9 1012.8 0.0
19/09:00pm 26.9 30.4 22.1 75 3.2 NE 7 17 4 9 1012.5 1012.4 0.0
19/08:30pm 27.0 30.4 22.0 74 3.4 NE 7 17 4 9 1012.2 1012.1 0.0
19/08:00pm 27.2 30.1 21.7 72 3.7 NE 9 17 5 9 1011.8 1011.7 0.0
19/07:30pm 27.5 29.7 21.8 71 3.8 NE 13 26 7 14 1011.4 1011.3 0.0
19/07:00pm 27.8 30.2 21.6 69 4.1 NE 11 19 6 10 1011.1 1011.0 0.0
19/06:30pm 28.5 29.7 21.5 66 4.7 NE 17 30 9 16 1010.9 1010.8 0.0
19/06:00pm 29.1 31.5 21.6 64 5.0 NE 11 22 6 12 1010.7 1010.6 0.0
19/05:30pm 30.4 32.2 21.8 60 5.8 NE 15 26 8 14 1010.5 1010.4 0.0
19/05:00pm 30.6 32.2 22.2 61 5.7 NE 17 32 9 17 1010.3 1010.2 0.0
19/04:30pm 30.4 31.9 22.0 60 5.7 NE 17 28 9 15 1010.3 1010.2 0.0
19/04:00pm 30.8 33.5 22.1 59 5.9 NNE 11 22 6 12 1010.3 1010.2 0.0
19/03:30pm 30.6 32.7 21.7 59 6.0 NE 13 24 7 13 1010.4 1010.3 0.0
19/03:00pm 31.8 32.8 21.0 52 7.2 NNE 17 30 9 16 1010.2 1010.1 0.0
19/02:30pm 33.5 35.2 21.6 49 8.1 NNE 15 26 8 14 1010.3 1010.2 0.0
19/02:00pm 34.1 35.2 21.2 47 8.7 NE 17 33 9 18 1010.6 1010.5 0.0
19/01:30pm 33.9 35.4 21.3 47 8.5 NNE 15 26 8 14 1010.9 1010.8 0.0
19/01:00pm 35.0 36.9 21.3 45 9.3 NNE 13 24 7 13 1011.5 1011.4 0.0
19/12:30pm 36.3 38.6 21.3 41 10.2 NE 11 20 6 11 1012.0 1011.9 0.0
19/12:00pm 34.9 36.0 20.5 43 9.7 E 15 24 8 13 1012.5 1012.4 0.0
19/11:30am 35.1 37.6 21.7 45 9.1 E 11 19 6 10 1013.0 1012.9 0.0
19/11:00am 32.8 35.8 22.0 53 7.4 ESE 9 19 5 10 1013.7 1013.6 0.0
19/10:30am 32.5 34.6 21.0 50 7.7 ENE 11 20 6 11 1014.0 1013.9 0.0
19/10:00am 32.0 34.2 21.8 54 6.9 ENE 13 24 7 13 1014.2 1014.1 0.0
19/09:30am 31.0 32.7 22.3 60 5.9 ENE 17 24 9 13 1014.4 1014.3 0.0
19/09:00am 30.5 33.0 22.4 62 5.5 E 13 22 7 12 1014.4 1014.3 0.0
19/08:30am 29.0 32.4 22.7 69 4.3 ESE 9 17 5 9 1014.2 1014.1 0.0
19/08:00am 27.4 31.9 23.0 77 3.0 E 4 9 2 5 1014.0 1013.9 0.0
19/07:30am 25.3 29.7 22.8 86 1.7 SSE 4 7 2 4 1013.6 1013.5 0.0
19/07:00am 24.6 28.9 22.7 89 1.3 ESE 4 6 2 3 1013.2 1013.1 0.0
19/06:30am 24.2 28.1 22.6 91 1.1 ESE 6 7 3 4 1013.0 1012.9 0.0
19/06:00am 23.6 27.6 22.0 91 1.1 SE 4 7 2 4 1012.6 1012.5 0.0
19/05:30am 23.7 27.3 22.1 91 1.1 SSE 6 9 3 5 1012.4 1012.3 0.0
19/05:00am 23.9 27.6 22.2 90 1.1 SE 6 7 3 4 1012.3 1012.2 0.0
19/04:30am 23.9 27.6 22.3 91 1.1 ESE 6 9 3 5 1012.0 1011.9 0.0
19/04:00am 23.7 27.7 22.1 91 1.1 SE 4 6 2 3 1011.7 1011.6 0.0
19/03:30am 23.7 27.6 22.5 93 0.8 SE 6 9 3 5 1011.7 1011.6 0.0
19/03:00am 22.8 26.5 21.4 92 0.9 ESE 4 6 2 3 1011.5 1011.4 0.0
19/02:30am 22.6 26.9 21.1 91 1.0 CALM 0 0 0 0 1011.5 1011.4 0.0
19/02:00am 22.7 27.0 21.2 91 1.0 CALM 0 0 0 0 1011.7 1011.6 0.0
19/01:30am 23.0 27.4 21.3 90 1.1 CALM 0 0 0 0 1011.8 1011.7 0.0
19/01:00am 23.1 27.4 21.2 89 1.2 CALM 0 0 0 0 1012.1 1012.0 0.0
19/12:30am 23.2 27.6 21.3 89 1.2 CALM 0 0 0 0 1012.3 1012.2 0.0
19/12:00am 23.3 27.6 21.2 88 1.4 CALM 0 0 0 0 1012.5 1012.4 0.0
 
Date/Time
CST
Temp
°C
App
Temp
°C
Dew
Point
Rel
Hum
%
Delta-T
°C
Wind Press
QNH
hPa
Press
MSL
hPa
Rain
since 9 am
mm
Dir
 
Spd
km/h
Gust
km/h
Spd
kts
Gust
kts
18/11:30pm 23.6 27.9 21.1 86 1.6 CALM 0 0 0 0 1012.7 1012.6 0.0
18/11:00pm 24.0 28.5 21.5 86 1.7 CALM 0 0 0 0 1012.7 1012.6 0.0
18/10:30pm 24.4 28.9 21.5 84 1.9 CALM 0 0 0 0 1012.6 1012.5 0.0
18/10:00pm 24.8 29.3 21.5 82 2.2 CALM 0 0 0 0 1012.5 1012.4 0.0
18/09:30pm 25.3 29.2 21.8 81 2.3 NNE 4 6 2 3 1012.4 1012.3 0.0
18/09:00pm 25.5 29.6 21.6 79 2.6 N 2 6 1 3 1012.1 1012.0 0.0
18/08:30pm 26.1 29.9 21.7 77 2.9 N 4 6 2 3 1012.0 1011.9 0.0
18/08:00pm 26.5 30.6 21.5 74 3.3 N 2 6 1 3 1011.8 1011.7 0.0
18/07:30pm 27.3 31.2 21.8 72 3.7 NNE 4 7 2 4 1011.6 1011.5 0.0
18/07:00pm 27.8 31.4 22.1 71 3.8 NNE 6 9 3 5 1011.3 1011.2 0.0
18/06:30pm 28.7 32.4 22.2 68 4.4 NNE 6 11 3 6 1011.0 1010.9 0.0
18/06:00pm 29.7 33.2 21.9 63 5.3 NNE 6 13 3 7 1010.6 1010.5 0.0
18/05:30pm 31.4 34.9 22.1 57 6.3 NNE 7 17 4 9 1010.4 1010.3 0.0
18/05:00pm 32.3 35.1 21.5 53 7.3 NE 9 15 5 8 1010.1 1010.0 0.0
18/04:30pm 33.1 35.2 20.9 48 8.2 NE 11 17 6 9 1010.0 1009.9 0.0
18/04:00pm 34.7 36.6 20.6 43 9.5 NE 11 22 6 12 1009.7 1009.6 0.0
18/03:30pm 34.6 37.4 21.6 46 8.9 N 9 19 5 10 1009.8 1009.7 0.0
18/03:00pm 35.0 36.9 19.8 41 10.1 NE 9 20 5 11 1009.9 1009.8 0.0
18/02:30pm 34.9 36.2 19.3 40 10.3 NNE 11 20 6 11 1010.1 1010.0 0.0
18/02:00pm 35.8 37.3 19.7 39 10.7 NE 11 22 6 12 1010.3 1010.2 0.0
18/01:30pm 37.9 37.4 16.8 29 13.6 ENE 15 26 8 14 1010.7 1010.6 0.0
18/01:00pm 35.7 34.6 15.4 29 12.7 E 15 26 8 14 1011.4 1011.3 0.0
18/12:30pm 35.7 36.5 17.4 33 11.8 ENE 9 19 5 10 1012.3 1012.2 0.0
18/12:00pm 35.5 35.9 18.1 35 11.3 ENE 13 22 7 12 1012.9 1012.8 0.0

Other Formats:

Comma delimited format used in spreadsheet applications
http://www.bom.gov.au/fwo/IDD60801/IDD60801.94119.axf

JavaScript Object Notation format (JSON) in row-major order
http://www.bom.gov.au/fwo/IDD60801/IDD60801.94119.json